createdAt,value
2022-11-07T00:01:27.425Z,1.35
2022-11-07T00:03:56.508Z,1.33
2022-11-07T00:06:26.368Z,1.23
2022-11-07T00:11:23.817Z,1.42
2022-11-07T00:13:51.913Z,1.30
2022-11-07T00:16:20.826Z,1.83
2022-11-07T00:18:50.829Z,1.38
2022-11-07T00:21:19.175Z,1.45
2022-11-07T00:23:51.315Z,1.13
2022-11-07T00:26:19.943Z,1.55
2022-11-07T00:28:48.158Z,1.30
2022-11-07T00:31:17.688Z,1.40
2022-11-07T00:33:46.351Z,1.75
2022-11-07T00:36:18.864Z,1.23
2022-11-07T00:38:49.274Z,1.15
2022-11-07T00:41:19.878Z,1.10
2022-11-07T00:46:19.109Z,1.00
2022-11-07T00:48:47.594Z,1.52
2022-11-07T00:51:21.046Z,1.45
2022-11-07T00:53:51.301Z,1.95
2022-11-07T00:56:22.654Z,1.25
2022-11-07T00:58:56.608Z,1.25
2022-11-07T01:01:26.813Z,1.50
2022-11-07T01:04:13.319Z,1.38
2022-11-07T01:06:43.797Z,1.08
2022-11-07T01:09:16.416Z,1.10
2022-11-07T01:11:46.780Z,1.15
2022-11-07T01:14:16.760Z,1.50
2022-11-07T01:16:45.972Z,1.17
2022-11-07T01:19:14.720Z,1.10
2022-11-07T01:21:43.263Z,1.05
2022-11-07T01:24:15.053Z,1.33
2022-11-07T01:26:47.858Z,1.20
2022-11-07T01:29:18.223Z,0.88
2022-11-07T01:31:46.841Z,0.95
2022-11-07T01:34:15.358Z,1.25
2022-11-07T01:36:44.514Z,1.33
2022-11-07T01:39:14.924Z,1.25
2022-11-07T01:41:43.771Z,1.02
2022-11-07T01:45:00.973Z,1.17
2022-11-07T01:47:33.522Z,1.23
2022-11-07T01:50:02.299Z,1.10
2022-11-07T01:52:33.728Z,1.00
2022-11-07T01:55:09.944Z,1.15
2022-11-07T01:57:41.491Z,1.00
2022-11-07T02:00:13.283Z,1.20
2022-11-07T02:02:42.820Z,1.52
2022-11-07T02:05:16.570Z,0.85
2022-11-07T02:07:45.430Z,1.20
2022-11-07T02:10:18.130Z,0.90
2022-11-07T02:12:48.828Z,0.88
2022-11-07T02:15:17.240Z,1.00
2022-11-07T02:17:45.747Z,0.80
2022-11-07T02:20:14.666Z,1.27
2022-11-07T02:22:49.878Z,0.90
2022-11-07T02:25:21.307Z,1.10
2022-11-07T02:27:52.742Z,0.90
2022-11-07T02:30:23.858Z,0.75
2022-11-07T02:32:54.912Z,1.23
2022-11-07T02:35:42.395Z,1.08
2022-11-07T02:38:14.925Z,1.20
2022-11-07T02:40:45.676Z,0.70
2022-11-07T02:43:17.698Z,0.68
2022-11-07T02:45:49.182Z,1.00
2022-11-07T02:48:18.088Z,0.90
2022-11-07T02:50:48.276Z,2.00
2022-11-07T02:53:17.169Z,1.05
2022-11-07T02:55:47.102Z,1.05
2022-11-07T02:58:17.231Z,1.00
2022-11-07T03:00:47.925Z,2.13
2022-11-07T03:03:16.614Z,1.23
2022-11-07T03:05:44.869Z,1.20
2022-11-07T03:08:13.371Z,1.00
2022-11-07T03:10:41.782Z,1.23
2022-11-07T03:13:11.854Z,1.00
2022-11-07T03:15:42.645Z,0.90
2022-11-07T03:18:11.003Z,1.23
2022-11-07T03:20:39.052Z,1.02
2022-11-07T03:23:07.418Z,1.02
2022-11-07T03:25:35.458Z,1.15
2022-11-07T03:28:04.208Z,1.42
2022-11-07T03:30:36.200Z,1.13
2022-11-07T03:33:04.920Z,1.65
2022-11-07T03:35:35.790Z,1.15
2022-11-07T03:38:05.732Z,1.15
2022-11-07T03:40:33.948Z,1.33
2022-11-07T03:43:03.170Z,1.00
2022-11-07T03:45:32.846Z,0.98
2022-11-07T03:50:31.442Z,1.02
2022-11-07T03:52:59.959Z,0.98
2022-11-07T03:55:30.654Z,0.93
2022-11-07T03:58:00.062Z,1.17
2022-11-07T04:00:28.684Z,1.05
2022-11-07T04:02:57.603Z,0.73
2022-11-07T04:05:28.527Z,1.10
2022-11-07T04:07:57.774Z,1.13
2022-11-07T04:10:26.740Z,0.85
2022-11-07T04:13:13.786Z,0.70
2022-11-07T04:16:02.979Z,1.20
2022-11-07T04:18:32.213Z,0.93
2022-11-07T04:21:04.963Z,1.20
2022-11-07T04:23:33.074Z,0.80
2022-11-07T04:26:18.891Z,0.90
2022-11-07T04:28:47.481Z,0.70
2022-11-07T04:31:17.659Z,0.67
2022-11-07T04:33:45.947Z,0.88
2022-11-07T04:36:16.152Z,1.20
2022-11-07T04:38:44.905Z,1.02
2022-11-07T04:41:20.867Z,1.05
2022-11-07T04:43:49.862Z,0.90
2022-11-07T04:46:19.048Z,0.65
2022-11-07T04:48:47.288Z,0.98
2022-11-07T04:51:21.799Z,0.80
2022-11-07T04:53:49.866Z,1.20
2022-11-07T04:56:18.616Z,1.30
2022-11-07T04:58:49.960Z,0.40
2022-11-07T05:01:19.411Z,1.20
2022-11-07T05:03:48.022Z,0.85
2022-11-07T05:06:17.480Z,0.75
2022-11-07T05:08:45.508Z,0.85
2022-11-07T05:11:14.835Z,0.80
2022-11-07T05:13:44.807Z,0.75
2022-11-07T05:16:17.249Z,0.82
2022-11-07T05:18:48.266Z,0.93
2022-11-07T05:21:18.212Z,0.93
2022-11-07T05:23:46.770Z,0.98
2022-11-07T05:26:15.325Z,0.73
2022-11-07T05:28:47.773Z,0.70
2022-11-07T05:31:18.198Z,1.17
2022-11-07T05:33:48.839Z,0.85
2022-11-07T05:36:21.788Z,0.40
2022-11-07T05:38:52.837Z,0.80
2022-11-07T05:41:22.804Z,1.25
2022-11-07T05:43:51.053Z,0.82
2022-11-07T05:46:20.264Z,0.80
2022-11-07T05:48:48.910Z,0.75
2022-11-07T05:51:20.121Z,0.50
2022-11-07T05:53:50.064Z,0.90
2022-11-07T05:56:18.737Z,0.88
2022-11-07T05:58:49.608Z,0.68
2022-11-07T06:01:18.639Z,1.15
2022-11-07T06:03:46.943Z,0.57
2022-11-07T06:06:17.265Z,0.80
2022-11-07T06:08:47.085Z,1.40
2022-11-07T06:11:17.699Z,0.63
2022-11-07T06:13:46.400Z,0.80
2022-11-07T06:16:14.926Z,1.10
2022-11-07T06:18:43.443Z,0.70
2022-11-07T06:21:12.231Z,0.93
2022-11-07T06:23:40.704Z,0.60
2022-11-07T06:26:12.792Z,0.50
2022-11-07T06:28:43.635Z,0.73
2022-11-07T06:31:14.139Z,0.88
2022-11-07T06:33:42.939Z,0.73
2022-11-07T06:36:14.426Z,0.65
2022-11-07T06:38:43.064Z,0.93
2022-11-07T06:41:14.491Z,0.80
2022-11-07T06:43:43.810Z,0.50
2022-11-07T06:46:17.181Z,0.60
2022-11-07T06:48:45.907Z,0.50
2022-11-07T06:51:15.970Z,0.90
2022-11-07T06:53:44.906Z,0.80
2022-11-07T06:56:17.330Z,0.73
2022-11-07T06:58:45.946Z,0.77
2022-11-07T07:01:16.594Z,0.77
2022-11-07T07:03:45.824Z,1.10
2022-11-07T07:06:16.074Z,0.87
2022-11-07T07:08:46.593Z,0.73
2022-11-07T07:11:17.765Z,1.13
2022-11-07T07:13:47.182Z,0.70
2022-11-07T07:16:16.611Z,0.55
2022-11-07T07:18:46.088Z,0.77
2022-11-07T07:21:15.802Z,0.65
2022-11-07T07:23:44.126Z,0.90
2022-11-07T07:26:14.860Z,0.77
2022-11-07T07:28:45.413Z,0.68
2022-11-07T07:31:23.100Z,0.82
2022-11-07T07:33:54.213Z,0.73
2022-11-07T07:36:22.736Z,1.00
2022-11-07T07:38:51.537Z,1.30
2022-11-07T07:41:21.359Z,1.03
2022-11-07T07:43:53.987Z,0.68
2022-11-07T07:46:24.419Z,0.50
2022-11-07T07:48:53.321Z,1.02
2022-11-07T07:51:22.722Z,0.57
2022-11-07T07:53:50.880Z,0.55
2022-11-07T07:56:19.744Z,0.60
2022-11-07T07:58:48.180Z,0.82
2022-11-07T08:01:18.336Z,0.88
2022-11-07T08:04:03.209Z,0.60
2022-11-07T08:06:32.380Z,1.10
2022-11-07T08:09:00.525Z,0.57
2022-11-07T08:11:30.069Z,0.50
2022-11-07T08:14:01.457Z,0.88
2022-11-07T08:16:33.467Z,0.88
2022-11-07T08:19:02.017Z,0.70
2022-11-07T08:21:31.051Z,0.63
2022-11-07T08:24:03.405Z,0.60
2022-11-07T08:26:32.085Z,1.10
2022-11-07T08:29:00.772Z,0.45
2022-11-07T08:34:01.288Z,0.35
2022-11-07T08:36:29.844Z,0.60
2022-11-07T08:38:58.384Z,0.65
2022-11-07T08:41:28.938Z,0.47
2022-11-07T08:43:57.355Z,0.30
2022-11-07T08:46:26.263Z,0.50
2022-11-07T08:48:56.171Z,0.73
2022-11-07T08:51:24.797Z,0.60
2022-11-07T08:53:53.437Z,0.80
2022-11-07T08:56:21.874Z,0.70
2022-11-07T08:58:50.485Z,0.70
2022-11-07T09:01:18.708Z,0.70
2022-11-07T09:03:54.646Z,0.75
2022-11-07T09:06:25.121Z,0.55
2022-11-07T09:08:54.073Z,0.80
2022-11-07T09:11:23.673Z,1.55
2022-11-07T09:13:54.940Z,0.65
2022-11-07T09:16:24.441Z,0.70
2022-11-07T09:18:53.534Z,1.02
2022-11-07T09:21:22.950Z,1.10
2022-11-07T09:23:53.652Z,0.80
2022-11-07T09:26:22.158Z,0.60
2022-11-07T09:28:53.942Z,0.82
2022-11-07T09:31:24.353Z,0.77
2022-11-07T09:33:56.126Z,0.75
2022-11-07T09:36:24.414Z,0.85
2022-11-07T09:38:56.299Z,0.70
2022-11-07T09:41:36.755Z,0.55
2022-11-07T09:44:20.966Z,0.45
2022-11-07T09:46:58.139Z,1.13
2022-11-07T09:49:37.583Z,0.43
2022-11-07T09:52:12.034Z,0.55
2022-11-07T09:54:47.030Z,1.15
2022-11-07T09:57:20.740Z,0.57
2022-11-07T09:59:54.921Z,0.80
2022-11-07T10:02:26.708Z,0.73
2022-11-07T10:04:58.791Z,0.60
2022-11-07T10:07:39.302Z,0.70
2022-11-07T10:10:19.532Z,1.30
2022-11-07T10:13:06.903Z,0.77
2022-11-07T10:15:48.032Z,0.73
2022-11-07T10:18:29.787Z,0.70
2022-11-07T10:21:35.839Z,0.68
2022-11-07T10:24:14.373Z,0.85
2022-11-07T10:26:46.424Z,0.70
2022-11-07T10:29:17.683Z,0.70
2022-11-07T10:31:56.432Z,0.50
2022-11-07T10:34:36.439Z,0.95
2022-11-07T10:37:05.758Z,0.68
2022-11-07T10:39:41.363Z,0.70
2022-11-07T10:42:17.132Z,0.55
2022-11-07T10:44:46.979Z,1.08
2022-11-07T10:47:17.291Z,0.43
2022-11-07T10:49:56.355Z,0.52
2022-11-07T10:52:25.735Z,0.95
2022-11-07T10:55:07.476Z,0.82
2022-11-07T10:57:49.581Z,0.70
2022-11-07T11:00:26.165Z,0.85
2022-11-07T11:02:56.704Z,0.60
2022-11-07T11:05:28.513Z,0.30
2022-11-07T11:08:08.051Z,0.60
2022-11-07T11:10:40.783Z,0.80
2022-11-07T11:13:28.853Z,0.50
2022-11-07T11:16:05.194Z,0.98
2022-11-07T11:18:34.601Z,0.70
2022-11-07T11:21:06.677Z,0.90
2022-11-07T11:23:40.237Z,0.68
2022-11-07T11:26:17.352Z,0.70
2022-11-07T11:29:02.828Z,0.43
2022-11-07T11:31:37.014Z,0.57
2022-11-07T11:34:14.264Z,0.30
2022-11-07T11:36:48.532Z,0.60
2022-11-07T11:39:26.414Z,0.65
2022-11-07T11:41:57.845Z,0.88
2022-11-07T11:44:38.056Z,0.90
2022-11-07T11:47:14.553Z,0.38
2022-11-07T11:49:47.696Z,1.08
2022-11-07T11:52:17.754Z,0.70
2022-11-07T11:54:47.403Z,0.55
2022-11-07T11:57:22.166Z,0.85
2022-11-07T12:00:05.000Z,0.70
2022-11-07T12:02:50.159Z,0.43
2022-11-07T12:05:34.913Z,0.45
2022-11-07T12:08:25.516Z,0.52
2022-11-07T12:11:01.825Z,0.50
2022-11-07T12:13:39.120Z,0.70
2022-11-07T12:16:19.942Z,0.73
2022-11-07T12:19:01.409Z,0.80
2022-11-07T12:21:47.348Z,0.57
2022-11-07T12:24:29.343Z,0.68
2022-11-07T12:27:06.626Z,0.65
2022-11-07T12:29:51.122Z,0.70
2022-11-07T12:32:29.793Z,0.38
2022-11-07T12:35:17.471Z,0.53
2022-11-07T12:38:04.234Z,0.65
2022-11-07T12:40:45.942Z,0.40
2022-11-07T12:43:26.305Z,0.40
2022-11-07T12:46:04.279Z,0.45
2022-11-07T12:49:01.261Z,1.25
2022-11-07T12:51:47.301Z,0.80
2022-11-07T12:54:42.119Z,0.50
2022-11-07T12:57:18.801Z,1.45
2022-11-07T12:59:52.907Z,0.45
2022-11-07T13:02:36.876Z,0.40
2022-11-07T13:05:23.629Z,0.70
2022-11-07T13:07:59.147Z,0.43
2022-11-07T13:10:37.764Z,0.63
2022-11-07T13:13:12.693Z,0.52
2022-11-07T13:16:08.900Z,0.70
2022-11-07T13:18:29.570Z,1.30
2022-11-07T13:21:07.346Z,0.40
2022-11-07T13:23:35.764Z,0.98
2022-11-07T13:26:26.332Z,0.70
2022-11-07T13:29:03.262Z,0.77
2022-11-07T13:31:34.707Z,0.85
2022-11-07T13:34:26.458Z,0.60
2022-11-07T13:37:02.811Z,0.82
2022-11-07T13:39:33.808Z,0.65
2022-11-07T13:42:02.401Z,0.85
2022-11-07T13:44:39.985Z,1.25
2022-11-07T13:47:16.620Z,0.70
2022-11-07T13:49:47.982Z,0.22
2022-11-07T13:52:23.807Z,0.80
2022-11-07T13:54:58.255Z,1.00
2022-11-07T13:57:32.224Z,0.50
2022-11-07T14:00:07.530Z,0.50
2022-11-07T14:02:52.461Z,0.50
2022-11-07T14:05:25.839Z,0.50
2022-11-07T14:08:01.005Z,0.60
2022-11-07T14:10:33.600Z,1.02
2022-11-07T14:13:07.727Z,0.43
2022-11-07T14:15:37.459Z,0.77
2022-11-07T14:18:08.179Z,1.17
2022-11-07T14:20:36.402Z,1.17
2022-11-07T14:23:14.171Z,1.17
2022-11-07T14:25:46.117Z,0.63
2022-11-07T14:28:18.015Z,0.68
2022-11-07T14:30:52.060Z,0.70
2022-11-07T14:33:23.038Z,0.60
2022-11-07T14:35:53.161Z,0.77
2022-11-07T14:38:25.328Z,1.00
2022-11-07T14:40:56.642Z,0.50
2022-11-07T14:43:26.687Z,0.50
2022-11-07T14:46:12.479Z,0.50
2022-11-07T14:48:43.713Z,0.50
2022-11-07T14:51:14.313Z,0.70
2022-11-07T14:53:53.101Z,0.95
2022-11-07T14:56:26.281Z,0.80
2022-11-07T14:58:54.922Z,0.70
2022-11-07T15:01:30.021Z,0.80
2022-11-07T15:04:01.959Z,1.38
2022-11-07T15:06:36.273Z,0.55
2022-11-07T15:09:08.839Z,1.00
2022-11-07T15:11:39.111Z,0.95
2022-11-07T15:14:23.433Z,1.00
2022-11-07T15:16:52.814Z,0.95
2022-11-07T15:19:23.961Z,1.05
2022-11-07T15:21:54.909Z,0.70
2022-11-07T15:24:51.291Z,1.10
2022-11-07T15:27:22.708Z,0.70
2022-11-07T15:29:53.964Z,1.25
2022-11-07T15:32:37.825Z,0.75
2022-11-07T15:35:42.439Z,1.10
2022-11-07T15:38:06.516Z,0.80
2022-11-07T15:40:36.109Z,0.93
2022-11-07T15:45:39.310Z,0.57
2022-11-07T15:48:08.943Z,0.70
2022-11-07T15:50:43.611Z,0.73
2022-11-07T15:53:19.444Z,1.67
2022-11-07T15:55:54.394Z,0.63
2022-11-07T15:58:24.509Z,0.98
2022-11-07T16:00:53.108Z,0.88
2022-11-07T16:03:24.220Z,0.60
2022-11-07T16:05:54.416Z,0.60
2022-11-07T16:08:26.080Z,1.17
2022-11-07T16:10:57.756Z,1.00
2022-11-07T16:13:26.433Z,1.60
2022-11-07T16:15:59.588Z,1.08
2022-11-07T16:18:29.034Z,1.15
2022-11-07T16:20:59.026Z,1.73
2022-11-07T16:23:28.332Z,2.10
2022-11-07T16:25:58.388Z,1.70
2022-11-07T16:28:30.158Z,1.02
2022-11-07T16:30:58.770Z,1.33
2022-11-07T16:33:29.138Z,1.33
2022-11-07T16:36:00.202Z,1.15
2022-11-07T16:38:35.057Z,0.80
2022-11-07T16:41:05.967Z,1.65
2022-11-07T16:43:35.798Z,1.00
2022-11-07T16:46:05.604Z,1.15
2022-11-07T16:51:08.159Z,1.30
2022-11-07T16:53:36.562Z,2.10
2022-11-07T16:56:07.635Z,1.50
2022-11-07T16:58:37.713Z,1.20
2022-11-07T17:01:07.770Z,0.80
2022-11-07T17:03:37.248Z,1.23
2022-11-07T17:06:07.257Z,1.30
2022-11-07T17:08:40.789Z,0.57
2022-11-07T17:11:14.585Z,1.05
2022-11-07T17:13:44.565Z,1.17
2022-11-07T17:18:46.808Z,1.42
2022-11-07T17:21:24.045Z,1.73
2022-11-07T17:23:53.220Z,1.05
2022-11-07T17:26:24.818Z,0.88
2022-11-07T17:28:53.939Z,1.70
2022-11-07T17:33:54.249Z,1.25
2022-11-07T17:36:36.783Z,1.27
2022-11-07T17:39:11.342Z,0.98
2022-11-07T17:41:45.181Z,1.45
2022-11-07T17:44:14.187Z,0.90
2022-11-07T17:46:44.268Z,1.37
2022-11-07T17:49:15.474Z,1.17
2022-11-07T17:51:44.121Z,1.40
2022-11-07T17:54:13.995Z,1.23
2022-11-07T17:56:44.578Z,1.25
2022-11-07T17:59:15.006Z,1.48
2022-11-07T18:01:44.908Z,1.40
2022-11-07T18:04:14.648Z,1.83
2022-11-07T18:06:44.025Z,1.67
2022-11-07T18:09:15.877Z,1.73
2022-11-07T18:11:45.927Z,1.75
2022-11-07T18:14:16.497Z,1.33
2022-11-07T18:16:48.034Z,1.63
2022-11-07T18:19:18.679Z,1.45
2022-11-07T18:21:47.168Z,1.50
2022-11-07T18:24:15.689Z,1.27
2022-11-07T18:26:45.541Z,1.85
2022-11-07T18:29:14.587Z,1.27
2022-11-07T18:31:43.789Z,0.95
2022-11-07T18:34:16.163Z,1.77
2022-11-07T18:36:45.838Z,1.23
2022-11-07T18:39:17.492Z,1.33
2022-11-07T18:41:47.574Z,1.25
2022-11-07T18:44:16.688Z,1.83
2022-11-07T18:46:46.157Z,1.58
2022-11-07T18:49:21.501Z,1.20
2022-11-07T18:51:50.037Z,1.27
2022-11-07T18:54:18.719Z,1.30
2022-11-07T18:56:49.804Z,1.45
2022-11-07T18:59:18.476Z,0.90
2022-11-07T19:01:47.580Z,2.03
2022-11-07T19:04:17.047Z,1.88
2022-11-07T19:06:58.606Z,1.55
2022-11-07T19:09:29.345Z,1.60
2022-11-07T19:12:00.863Z,1.80
2022-11-07T19:14:30.481Z,1.35
2022-11-07T19:16:59.481Z,1.60
2022-11-07T19:19:27.876Z,1.40
2022-11-07T19:21:56.453Z,1.35
2022-11-07T19:24:26.441Z,1.05
2022-11-07T19:26:55.402Z,1.33
2022-11-07T19:29:25.937Z,0.98
2022-11-07T19:31:54.546Z,0.90
2022-11-07T19:34:22.994Z,1.77
2022-11-07T19:36:51.383Z,0.88
2022-11-07T19:39:19.962Z,1.25
2022-11-07T19:41:48.850Z,0.80
2022-11-07T19:44:17.593Z,1.20
2022-11-07T19:46:47.914Z,0.90
2022-11-07T19:49:16.347Z,1.23
2022-11-07T19:51:44.795Z,1.15
2022-11-07T19:54:13.602Z,1.00
2022-11-07T19:56:42.119Z,1.10
2022-11-07T19:59:11.556Z,2.15
2022-11-07T20:01:42.291Z,0.90
2022-11-07T20:04:12.131Z,1.27
2022-11-07T20:09:16.223Z,1.10
2022-11-07T20:11:44.886Z,1.42
2022-11-07T20:14:15.994Z,1.80
2022-11-07T20:16:44.577Z,1.00
2022-11-07T20:19:15.172Z,1.85
2022-11-07T20:21:43.640Z,1.50
2022-11-07T20:24:11.776Z,1.58
2022-11-07T20:26:44.062Z,2.38
2022-11-07T20:29:13.561Z,3.38
2022-11-07T20:31:45.201Z,3.10
2022-11-07T20:34:17.672Z,1.88
2022-11-07T20:36:50.088Z,2.00
2022-11-07T20:39:21.129Z,1.58
2022-11-07T20:41:49.519Z,2.13
2022-11-07T20:44:22.816Z,1.42
2022-11-07T20:46:51.728Z,2.97
2022-11-07T20:49:21.997Z,2.63
2022-11-07T20:51:50.731Z,2.67
2022-11-07T20:54:19.218Z,2.28
2022-11-07T20:56:50.367Z,1.55
2022-11-07T20:59:19.118Z,1.30
2022-11-07T21:02:00.220Z,1.90
2022-11-07T21:04:49.825Z,1.30
2022-11-07T21:09:52.512Z,1.33
2022-11-07T21:12:20.959Z,1.42
2022-11-07T21:14:49.603Z,1.37
2022-11-07T21:17:18.050Z,1.52
2022-11-07T21:19:47.581Z,1.15
2022-11-07T21:22:16.205Z,1.45
2022-11-07T21:24:45.846Z,1.67
2022-11-07T21:27:15.570Z,1.38
2022-11-07T21:29:44.167Z,1.17
2022-11-07T21:32:12.885Z,1.73
2022-11-07T21:34:42.862Z,1.02
2022-11-07T21:37:12.863Z,1.40
2022-11-07T21:42:09.505Z,1.40
2022-11-07T21:44:39.014Z,1.92
2022-11-07T21:47:10.542Z,1.65
2022-11-07T21:49:39.708Z,0.98
2022-11-07T21:52:08.315Z,0.73
2022-11-07T21:54:38.390Z,1.35
2022-11-07T21:57:07.448Z,1.40
2022-11-07T21:59:37.875Z,1.35
2022-11-07T22:02:07.065Z,0.80
2022-11-07T22:05:07.718Z,1.40
2022-11-07T22:07:37.971Z,0.85
2022-11-07T22:10:09.400Z,1.42
2022-11-07T22:12:37.726Z,1.08
2022-11-07T22:15:07.473Z,0.93
2022-11-07T22:17:38.897Z,1.13
2022-11-07T22:20:08.713Z,1.27
2022-11-07T22:22:37.422Z,1.23
2022-11-07T22:25:08.732Z,1.23
2022-11-07T22:27:37.893Z,1.00
2022-11-07T22:30:07.278Z,1.20
2022-11-07T22:32:35.955Z,0.70
2022-11-07T22:35:08.988Z,1.02
2022-11-07T22:37:38.335Z,0.95
2022-11-07T22:40:10.932Z,1.02
2022-11-07T22:42:40.262Z,0.80
2022-11-07T22:45:10.984Z,0.98
2022-11-07T22:47:39.838Z,0.73
2022-11-07T22:50:10.073Z,0.85
2022-11-07T22:52:38.570Z,1.27
2022-11-07T22:55:09.279Z,0.90
2022-11-07T22:57:37.789Z,1.30
2022-11-07T23:00:20.951Z,0.70
2022-11-07T23:02:50.432Z,1.20
2022-11-07T23:05:18.988Z,1.27
2022-11-07T23:07:50.253Z,0.65
2022-11-07T23:10:23.146Z,1.30
2022-11-07T23:12:51.629Z,0.55
2022-11-07T23:15:20.868Z,0.77
2022-11-07T23:17:49.726Z,0.88
2022-11-07T23:20:32.026Z,0.80
2022-11-07T23:23:01.895Z,1.60
2022-11-07T23:25:31.815Z,2.42
2022-11-07T23:28:00.190Z,2.08
2022-11-07T23:30:30.183Z,1.15
2022-11-07T23:32:58.421Z,1.45
2022-11-07T23:35:26.710Z,1.42
2022-11-07T23:37:55.488Z,1.25
2022-11-07T23:40:24.618Z,1.08
2022-11-07T23:42:54.477Z,0.98
2022-11-07T23:48:31.061Z,1.25
2022-11-07T23:51:03.575Z,1.23
2022-11-07T23:53:51.046Z,0.98
2022-11-07T23:56:20.651Z,1.42
2022-11-07T23:59:18.653Z,1.40
